Time;durP1;ratioP1;P1;durP2;ratioP2;P2;SDS_P1;SDS_P2;PMS_P1;PMS_P2;Temp;Humidity;BMP_temperature;BMP_pressure;BME280_temperature;BME280_humidity;BME280_pressure;Samples;Min_cycle;Max_cycle;Signal;HPM_P1;HPM_P2
2022/05/01 00:00:47;;;;;;;19.02;7.68;;;;;;;19.12;35.09;102189.78;5015068;28;20030;-65
2022/05/01 00:03:31;;;;;;;17.90;8.10;;;;;;;19.09;35.57;102184.69;5015136;28;20026;-65
2022/05/01 00:06:04;;;;;;;14.70;6.78;;;;;;;19.05;34.98;102182.41;5015077;28;20021;-66
2022/05/01 00:08:30;;;;;;;16.65;7.13;;;;;;;19.04;35.37;102186.97;5015013;28;20030;-66
2022/05/01 00:10:56;;;;;;;11.18;6.05;;;;;;;19.02;34.67;102189.00;5015059;28;20022;-66
2022/05/01 00:13:22;;;;;;;11.93;5.57;;;;;;;19.01;35.31;102183.72;5015197;28;20026;-65
2022/05/01 00:15:48;;;;;;;18.17;4.82;;;;;;;18.99;35.06;102189.28;5015049;28;20430;-66
2022/05/01 00:18:14;;;;;;;6.72;4.47;;;;;;;18.97;35.31;102187.75;4997224;28;20025;-66
2022/05/01 00:20:39;;;;;;;8.13;5.13;;;;;;;18.94;34.88;102183.47;5014269;28;20539;-65
2022/05/01 00:23:05;;;;;;;8.68;4.88;;;;;;;18.93;35.19;102184.47;5013103;28;20084;-66
2022/05/01 00:25:31;;;;;;;9.15;5.00;;;;;;;18.92;35.44;102182.78;5014848;28;20036;-66
2022/05/01 00:27:56;;;;;;;6.88;3.92;;;;;;;18.92;35.54;102181.91;5014808;28;20116;-66
2022/05/01 00:30:21;;;;;;;8.25;4.05;;;;;;;18.91;35.70;102177.47;5014673;28;20420;-66
2022/05/01 00:38:14;;;;;;;5.40;3.75;;;;;;;18.81;35.62;102166.69;5014194;28;20108;-65
2022/05/01 00:40:40;;;;;;;9.70;4.25;;;;;;;18.78;35.98;102164.25;5013866;28;20030;-66
2022/05/01 00:43:05;;;;;;;5.93;3.90;;;;;;;18.77;35.12;102167.97;4996873;28;20044;-66
2022/05/01 00:45:32;;;;;;;7.05;4.10;;;;;;;18.77;36.04;102165.25;5014552;28;20026;-66
2022/05/01 00:47:57;;;;;;;5.93;3.90;;;;;;;18.75;35.75;102169.97;4996290;28;20037;-66
2022/05/01 00:50:23;;;;;;;6.57;3.90;;;;;;;18.74;35.41;102162.81;5014578;28;20117;-66
2022/05/01 00:52:49;;;;;;;9.55;4.55;;;;;;;18.75;35.68;102164.56;5014265;28;20391;-66
2022/05/01 00:55:15;;;;;;;12.60;4.88;;;;;;;18.74;36.07;102170.97;4996816;28;20040;-66
2022/05/01 00:57:41;;;;;;;7.68;4.68;;;;;;;18.71;35.41;102168.56;5014440;28;20113;-66
2022/05/01 01:00:07;;;;;;;5.80;3.70;;;;;;;18.71;36.08;102168.56;5014181;28;20018;-66
2022/05/01 01:02:33;;;;;;;9.63;4.85;;;;;;;18.71;35.73;102165.84;5029594;28;20037;-67
2022/05/01 01:04:58;;;;;;;5.38;3.72;;;;;;;18.69;36.04;102167.84;4997012;28;20395;-66
2022/05/01 01:07:25;;;;;;;8.60;4.32;;;;;;;18.69;36.32;102167.84;5014238;28;20030;-66
2022/05/01 01:09:51;;;;;;;7.70;4.00;;;;;;;18.68;36.22;102168.03;5014081;28;20052;-66
2022/05/01 01:15:09;;;;;;;7.45;4.40;;;;;;;18.66;36.52;102168.16;5014116;28;20395;-66
2022/05/01 01:17:42;;;;;;;8.50;4.20;;;;;;;18.66;36.06;102170.00;5014529;28;20068;-65
2022/05/01 01:20:17;;;;;;;12.32;4.82;;;;;;;18.65;36.92;102176.47;5014333;28;20435;-65
2022/05/01 01:22:44;;;;;;;9.48;4.45;;;;;;;18.62;36.20;102164.00;5014199;28;20101;-66
2022/05/01 01:25:10;;;;;;;17.83;4.75;;;;;;;18.63;36.68;102170.31;5014083;28;20113;-66
2022/05/01 01:27:40;;;;;;;5.78;4.07;;;;;;;18.62;36.89;102163.19;4996680;28;20479;-66
2022/05/01 01:32:54;;;;;;;7.07;4.45;;;;;;;18.56;35.96;102170.88;5026390;28;20033;-65
2022/05/01 01:35:23;;;;;;;7.35;4.15;;;;;;;18.57;36.19;102171.75;5013957;28;20049;-66
2022/05/01 01:37:50;;;;;;;9.88;5.22;;;;;;;18.56;35.92;102170.88;4997258;28;20030;-66
2022/05/01 01:40:24;;;;;;;8.85;4.05;;;;;;;18.54;36.70;102170.19;4993099;28;20072;-66
2022/05/01 01:42:50;;;;;;;8.95;5.45;;;;;;;18.54;36.46;102170.19;4993102;28;20033;-65
2022/05/01 01:45:16;;;;;;;13.45;4.53;;;;;;;18.54;36.21;102177.47;4993768;28;20507;-66
2022/05/01 01:47:43;;;;;;;7.60;4.50;;;;;;;18.53;36.04;102178.50;4994200;28;20034;-66
2022/05/01 01:50:09;;;;;;;15.32;5.30;;;;;;;18.52;35.97;102177.63;4994458;28;20022;-66
2022/05/01 01:52:35;;;;;;;8.77;4.75;;;;;;;18.50;35.93;102176.06;4994151;28;20506;-65
2022/05/01 01:55:00;;;;;;;7.40;4.80;;;;;;;18.51;36.53;102175.03;4997743;28;20022;-66
2022/05/01 01:57:26;;;;;;;9.90;5.22;;;;;;;18.49;37.11;102172.50;4998066;28;20033;-66
2022/05/01 01:59:51;;;;;;;7.90;4.80;;;;;;;18.50;37.38;102181.50;4997736;28;20500;-66
2022/05/01 02:02:17;;;;;;;7.97;4.57;;;;;;;18.49;36.90;102168.94;4997596;28;20113;-66
2022/05/01 02:04:42;;;;;;;6.68;4.50;;;;;;;18.49;37.30;102177.06;4997730;28;20030;-65
2022/05/01 02:07:07;;;;;;;10.73;4.32;;;;;;;18.49;36.02;102166.22;5029426;28;20478;-66
2022/05/01 02:09:37;;;;;;;9.52;4.47;;;;;;;18.47;37.11;102169.06;4997663;28;20030;-66
2022/05/01 02:12:06;;;;;;;9.05;4.75;;;;;;;18.47;37.13;102162.75;4997779;28;20488;-65
2022/05/01 02:14:33;;;;;;;10.23;4.75;;;;;;;18.47;37.21;102155.47;4997811;28;20030;-66
2022/05/01 02:16:58;;;;;;;7.22;4.20;;;;;;;18.47;37.14;102154.63;4997593;28;20089;-66
2022/05/01 02:19:24;;;;;;;9.55;4.65;;;;;;;18.46;37.58;102158.31;4997423;28;20077;-66
2022/05/01 02:21:49;;;;;;;8.73;4.75;;;;;;;18.44;37.48;102157.63;4996415;28;20026;-66
2022/05/01 02:24:14;;;;;;;7.07;4.85;;;;;;;18.43;36.72;102155.91;4997700;28;20019;-66
2022/05/01 02:26:40;;;;;;;12.13;5.10;;;;;;;18.41;37.24;102144.34;4997729;28;20178;-65
2022/05/01 02:29:09;;;;;;;11.20;5.15;;;;;;;18.43;37.33;102148.63;4996920;28;20027;-65
2022/05/01 02:31:37;;;;;;;7.53;4.90;;;;;;;18.41;36.54;102139.78;4997124;28;20018;-66
2022/05/01 02:34:03;;;;;;;8.95;5.18;;;;;;;18.42;36.56;102146.06;4997315;28;20034;-65
2022/05/01 02:36:28;;;;;;;9.88;4.95;;;;;;;18.40;36.98;102142.63;4997182;28;20495;-66
2022/05/01 02:38:53;;;;;;;7.88;5.05;;;;;;;18.40;37.04;102145.34;5004756;28;20519;-66
2022/05/01 02:41:19;;;;;;;11.02;5.22;;;;;;;18.39;37.53;102146.38;5016622;28;20491;-65
2022/05/01 02:43:44;;;;;;;6.95;4.97;;;;;;;18.38;37.95;102144.66;5016891;28;20022;-66
2022/05/01 02:46:10;;;;;;;7.78;4.50;;;;;;;18.36;37.92;102142.09;5016661;28;20097;-65
2022/05/01 02:48:35;;;;;;;9.50;5.18;;;;;;;18.36;37.55;102141.22;5016672;28;20428;-66
2022/05/01 02:51:04;;;;;;;10.15;4.88;;;;;;;18.35;37.40;102142.22;5016404;28;20127;-65
2022/05/01 02:53:30;;;;;;;11.77;6.45;;;;;;;18.35;37.21;102132.22;5016215;28;20034;-66
2022/05/01 02:55:55;;;;;;;9.73;4.40;;;;;;;18.35;38.28;102131.38;5016471;28;20018;-66
2022/05/01 02:58:21;;;;;;;9.88;5.10;;;;;;;18.33;36.91;102133.38;5016176;28;20029;-66
2022/05/01 03:00:46;;;;;;;9.55;5.10;;;;;;;18.32;38.25;102129.81;5015626;28;20025;-66
2022/05/01 03:03:11;;;;;;;8.77;5.10;;;;;;;18.30;37.50;102125.53;5016098;28;20029;-66
2022/05/01 03:05:37;;;;;;;6.95;4.72;;;;;;;18.30;37.45;102123.69;5015715;28;20026;-66
2022/05/01 03:08:02;;;;;;;10.00;5.35;;;;;;;18.28;37.55;102123.00;5016047;28;20025;-66
2022/05/01 03:10:27;;;;;;;7.65;5.07;;;;;;;18.28;37.95;102116.69;5015814;28;20057;-65
2022/05/01 03:12:53;;;;;;;7.90;5.00;;;;;;;18.27;37.63;102114.97;5015904;28;20376;-66
2022/05/01 03:15:18;;;;;;;7.18;4.57;;;;;;;18.26;37.04;102113.25;5016207;28;20129;-66
2022/05/01 03:23:12;;;;;;;7.57;5.03;;;;;;;18.23;37.31;102122.56;5015765;28;20083;-66
2022/05/01 03:25:37;;;;;;;7.03;4.88;;;;;;;18.22;37.95;102112.72;5015808;28;20026;-65
2022/05/01 03:28:03;;;;;;;7.95;5.50;;;;;;;18.22;37.22;102112.72;5015573;28;20092;-66
2022/05/01 03:30:28;;;;;;;9.10;5.50;;;;;;;18.23;38.94;102113.59;5015500;28;20449;-65
2022/05/01 03:32:54;;;;;;;13.30;5.43;;;;;;;18.22;38.44;102109.16;5015708;28;20042;-66
2022/05/01 03:35:19;;;;;;;8.35;5.47;;;;;;;18.22;39.04;102109.16;5015611;28;20026;-66
2022/05/01 03:37:45;;;;;;;9.95;5.65;;;;;;;18.20;37.60;102103.84;5015404;28;20044;-66
2022/05/01 03:40:13;;;;;;;8.82;5.28;;;;;;;18.19;38.77;102104.88;5015432;28;20061;-66
2022/05/01 03:42:38;;;;;;;8.63;6.05;;;;;;;18.20;38.54;102113.88;5015371;28;20022;-66
2022/05/01 03:45:04;;;;;;;10.80;5.35;;;;;;;18.19;38.87;102112.16;5014847;28;20030;-66
2022/05/01 03:47:29;;;;;;;13.98;6.32;;;;;;;18.19;38.56;102112.16;5015734;28;20022;-66
2022/05/01 03:49:54;;;;;;;11.15;5.88;;;;;;;18.16;38.55;102107.88;5015280;28;20475;-66
2022/05/01 03:52:20;;;;;;;7.50;5.28;;;;;;;18.14;38.71;102114.47;5030300;28;20114;-65
2022/05/01 03:54:45;;;;;;;11.52;5.53;;;;;;;18.12;37.84;102109.16;5015269;28;20022;-66
2022/05/01 03:57:11;;;;;;;10.90;5.43;;;;;;;18.09;37.95;102112.16;4998004;28;20024;-65
2022/05/01 03:59:36;;;;;;;10.88;5.93;;;;;;;18.08;38.34;102105.06;5015137;28;20026;-66
2022/05/01 04:02:02;;;;;;;11.25;5.28;;;;;;;18.08;38.50;102104.19;5014953;28;20026;-66
2022/05/01 04:04:27;;;;;;;13.07;5.90;;;;;;;18.04;39.41;102104.47;5015029;28;20032;-65
2022/05/01 04:06:52;;;;;;;12.27;5.85;;;;;;;18.01;38.19;102099.34;5015039;28;20041;-66
2022/05/01 04:09:18;;;;;;;11.10;5.68;;;;;;;17.99;37.90;102109.50;5015135;28;20109;-66
2022/05/01 04:11:43;;;;;;;8.35;5.68;;;;;;;17.98;39.56;102102.34;5030578;28;20036;-67
2022/05/01 04:14:09;;;;;;;9.90;6.20;;;;;;;17.96;39.14;102107.06;5014756;28;20032;-65
2022/05/01 04:16:34;;;;;;;8.98;5.57;;;;;;;17.96;38.53;102101.66;5014031;28;20025;-66
2022/05/01 04:18:59;;;;;;;13.68;6.60;;;;;;;17.95;37.85;102097.22;5014705;28;20030;-67
2022/05/01 04:21:25;;;;;;;9.70;6.13;;;;;;;17.94;38.94;102106.38;5014457;28;20029;-66
2022/05/01 04:23:50;;;;;;;11.60;5.95;;;;;;;17.95;38.46;102110.78;5014900;28;20018;-65
2022/05/01 04:26:16;;;;;;;9.00;5.70;;;;;;;17.93;39.25;102107.34;5014814;28;20076;-66
2022/05/01 04:29:36;;;;;;;11.10;6.00;;;;;;;17.95;39.16;102105.34;5029801;28;20100;-66
2022/05/01 04:31:27;;;;;;;13.68;5.53;;;;;;;17.95;39.45;102116.19;5014356;28;20507;-66
2022/05/01 04:33:53;;;;;;;11.25;6.55;;;;;;;17.95;39.40;102110.78;5014446;28;20104;-66
2022/05/01 04:36:19;;;;;;;9.45;5.50;;;;;;;17.97;38.93;102111.50;5014411;28;20053;-66
2022/05/01 04:38:44;;;;;;;11.63;6.65;;;;;;;17.98;39.07;102112.34;5014301;28;20523;-66
2022/05/01 04:41:09;;;;;;;11.13;6.38;;;;;;;17.99;39.38;102111.34;5014440;28;20076;-66
2022/05/01 04:43:36;;;;;;;12.30;6.53;;;;;;;17.99;39.16;102112.22;5014301;28;20026;-66
2022/05/01 04:46:02;;;;;;;10.05;5.95;;;;;;;18.00;38.44;102119.34;5014266;28;20037;-66
2022/05/01 04:48:28;;;;;;;12.20;7.05;;;;;;;18.01;38.69;102115.63;4996617;28;20030;-66
2022/05/01 04:50:53;;;;;;;10.45;6.85;;;;;;;18.02;38.69;102116.47;4996704;28;20112;-65
2022/05/01 04:53:20;;;;;;;10.43;6.80;;;;;;;18.02;38.57;102114.63;5014279;28;20059;-66
2022/05/01 04:55:47;;;;;;;12.45;6.70;;;;;;;18.03;39.83;102113.59;5014280;28;20025;-66
2022/05/01 04:58:16;;;;;;;10.07;6.18;;;;;;;18.06;38.21;102122.47;5014536;28;20028;-65
2022/05/01 05:00:43;;;;;;;26.73;7.00;;;;;;;18.07;38.88;102118.75;5014450;28;20075;-66
2022/05/01 05:03:08;;;;;;;13.45;6.95;;;;;;;18.07;39.53;102124.16;5013674;28;20034;-65
2022/05/01 05:05:37;;;;;;;9.98;6.72;;;;;;;18.10;39.35;102129.28;5014195;28;20030;-66
2022/05/01 05:10:48;;;;;;;13.60;6.55;;;;;;;18.11;39.95;102131.03;5013828;28;20083;-67
2022/05/01 05:13:15;;;;;;;11.68;6.72;;;;;;;18.10;39.05;102127.44;5014630;28;20539;-65
2022/05/01 05:15:41;;;;;;;13.48;6.95;;;;;;;18.13;39.81;102139.84;5014323;28;20037;-66
2022/05/01 05:18:07;;;;;;;14.85;6.95;;;;;;;18.14;39.62;102128.88;5017001;28;20034;-66
2022/05/01 05:20:32;;;;;;;16.60;6.43;;;;;;;18.17;39.43;102125.00;5040013;28;20032;-65
2022/05/01 05:22:57;;;;;;;9.82;6.35;;;;;;;18.19;38.97;102121.16;5021650;28;20021;-65
2022/05/01 05:25:23;;;;;;;13.02;6.63;;;;;;;18.22;38.64;102128.13;5005779;28;20032;-65
2022/05/01 05:27:48;;;;;;;16.00;7.03;;;;;;;18.25;38.24;102127.84;5025965;28;20033;-66
2022/05/01 05:30:14;;;;;;;13.73;7.18;;;;;;;18.27;38.72;102125.84;5026106;28;20041;-65
2022/05/01 05:32:39;;;;;;;11.43;6.50;;;;;;;18.30;39.29;102130.97;5043099;28;20030;-65
2022/05/01 05:35:05;;;;;;;11.60;7.13;;;;;;;18.31;39.04;102138.97;5030178;28;20036;-66
2022/05/01 05:37:31;;;;;;;17.02;6.57;;;;;;;18.34;39.82;102137.81;5045898;28;20025;-66
2022/05/01 05:39:57;;;;;;;12.38;7.75;;;;;;;18.36;38.96;102135.81;5045663;28;20041;-67
2022/05/01 05:42:22;;;;;;;9.40;6.32;;;;;;;18.41;39.27;102133.50;5043951;28;20070;-67
2022/05/01 05:44:48;;;;;;;11.98;7.22;;;;;;;18.45;39.83;102130.34;5045037;28;20022;-66
2022/05/01 05:47:13;;;;;;;12.68;7.28;;;;;;;18.47;39.23;102130.19;5043518;28;20479;-65
2022/05/01 05:49:39;;;;;;;15.25;8.50;;;;;;;18.50;38.61;102133.50;5047207;28;20013;-65
2022/05/01 05:52:04;;;;;;;15.82;7.95;;;;;;;18.52;38.32;102136.94;5041175;28;20057;-66
2022/05/01 05:54:29;;;;;;;17.98;8.05;;;;;;;18.53;39.27;102137.78;5041276;28;20036;-66
2022/05/01 05:56:55;;;;;;;12.02;7.50;;;;;;;18.54;38.96;102142.19;5037692;28;20107;-66
2022/05/01 05:59:21;;;;;;;16.45;7.72;;;;;;;18.57;38.50;102147.31;5034241;28;20483;-65
2022/05/01 06:01:46;;;;;;;15.27;8.10;;;;;;;18.59;39.16;102139.91;5036801;28;20029;-65
2022/05/01 06:04:11;;;;;;;17.20;8.35;;;;;;;18.62;39.20;102139.59;5044092;28;20021;-66
2022/05/01 06:06:37;;;;;;;20.52;7.38;;;;;;;18.64;38.90;102139.44;5040610;28;20351;-66
2022/05/01 06:09:02;;;;;;;16.63;7.88;;;;;;;18.67;39.01;102140.00;5035414;28;20052;-65
2022/05/01 06:11:28;;;;;;;16.48;7.93;;;;;;;18.70;39.41;102138.84;5037278;28;20029;-66
2022/05/01 06:13:54;;;;;;;11.20;7.57;;;;;;;18.72;38.45;102145.84;5044500;28;20029;-66
2022/05/01 06:16:19;;;;;;;16.70;8.07;;;;;;;18.75;39.39;102150.97;5045043;28;20036;-67
2022/05/01 06:18:45;;;;;;;15.55;7.13;;;;;;;18.80;38.17;102150.50;5033538;28;20104;-66
2022/05/01 06:21:11;;;;;;;15.82;7.47;;;;;;;18.82;38.38;102149.34;5020371;28;20029;-66
2022/05/01 06:23:37;;;;;;;16.42;7.88;;;;;;;18.86;38.98;102148.06;5036990;28;20025;-66
2022/05/01 06:26:04;;;;;;;19.02;7.97;;;;;;;18.89;38.87;102150.47;5041692;28;20634;-66
2022/05/01 06:28:30;;;;;;;11.90;7.18;;;;;;;18.92;38.41;102150.19;5043516;28;20109;-65
2022/05/01 06:30:55;;;;;;;22.33;7.65;;;;;;;18.96;39.38;102146.13;5026258;28;20446;-66
2022/05/01 06:33:22;;;;;;;20.77;7.82;;;;;;;19.00;38.62;102146.69;5010785;28;20025;-66
2022/05/01 06:35:53;;;;;;;15.45;8.35;;;;;;;19.04;39.43;102148.09;5041315;28;20056;-66
2022/05/01 06:38:19;;;;;;;13.63;7.50;;;;;;;19.07;38.48;102148.66;5041160;28;20394;-66
2022/05/01 06:40:45;;;;;;;12.05;7.25;;;;;;;19.11;39.24;102143.78;5045644;28;20029;-66
2022/05/01 06:43:11;;;;;;;13.55;7.47;;;;;;;19.15;38.36;102146.03;5034765;28;20033;-66
2022/05/01 06:45:37;;;;;;;11.18;7.72;;;;;;;19.19;38.54;102152.88;5039746;28;20466;-66
2022/05/01 06:48:03;;;;;;;11.60;7.32;;;;;;;19.26;38.45;102152.28;5032472;28;20053;-66
2022/05/01 06:50:30;;;;;;;10.57;6.88;;;;;;;19.29;38.17;102146.53;5027795;28;20051;-66
2022/05/01 06:52:55;;;;;;;13.70;7.47;;;;;;;19.33;38.40;102150.63;5043856;28;20550;-66
2022/05/01 06:55:23;;;;;;;13.57;8.40;;;;;;;19.38;38.65;102151.03;5026738;28;20100;-66
2022/05/01 06:57:49;;;;;;;14.85;9.02;;;;;;;19.41;39.06;102156.19;5024149;28;20064;-66
2022/05/01 07:00:15;;;;;;;13.93;8.05;;;;;;;19.44;39.02;102145.00;5040179;28;20025;-65
2022/05/01 07:02:50;;;;;;;12.73;7.53;;;;;;;19.47;39.25;102150.13;5040341;28;20051;-65
2022/05/01 07:05:18;;;;;;;14.93;7.75;;;;;;;19.49;38.82;102156.25;5042132;28;20025;-66
2022/05/01 07:07:44;;;;;;;12.30;7.18;;;;;;;19.51;38.04;102146.13;5041112;28;20300;-66
2022/05/01 07:10:10;;;;;;;12.90;8.20;;;;;;;19.55;38.33;102151.06;5038332;28;20021;-66
2022/05/01 07:12:35;;;;;;;15.88;8.57;;;;;;;19.58;38.29;102141.75;5023100;28;20029;-66
2022/05/01 07:15:01;;;;;;;11.25;7.65;;;;;;;19.63;38.33;102144.84;5021083;28;20021;-66
2022/05/01 07:17:27;;;;;;;15.63;7.97;;;;;;;19.67;38.46;102148.97;5043543;28;20029;-66
2022/05/01 07:19:52;;;;;;;15.70;8.27;;;;;;;19.70;38.23;102146.81;5037589;28;20036;-67
2022/05/01 07:22:18;;;;;;;14.25;6.85;;;;;;;19.75;38.67;102149.91;5023713;28;20069;-66
2022/05/01 07:24:43;;;;;;;12.93;7.80;;;;;;;19.80;38.08;102152.16;5017533;28;20025;-66
2022/05/01 07:27:09;;;;;;;13.25;7.10;;;;;;;19.83;38.19;102160.00;5038930;28;20121;-66
2022/05/01 07:29:34;;;;;;;15.23;7.68;;;;;;;19.87;38.24;102152.38;5037115;28;20506;-65
2022/05/01 07:32:00;;;;;;;12.23;7.50;;;;;;;19.92;38.41;102160.91;5037098;28;20052;-66
2022/05/01 07:34:25;;;;;;;13.27;7.90;;;;;;;19.96;38.56;102157.72;5044229;28;20079;-66
2022/05/01 07:36:51;;;;;;;14.30;8.18;;;;;;;19.99;38.68;102162.84;5020759;28;20364;-67
2022/05/01 07:39:16;;;;;;;13.77;7.65;;;;;;;20.05;38.27;102161.34;5038341;28;20053;-66
2022/05/01 07:41:41;;;;;;;12.63;7.90;;;;;;;20.09;37.83;102163.63;5041733;28;20047;-64
2022/05/01 07:44:08;;;;;;;14.63;8.13;;;;;;;20.14;38.42;102166.72;5020506;28;20021;-66
2022/05/01 07:46:34;;;;;;;17.35;8.63;;;;;;;20.17;38.29;102166.41;5037449;28;20048;-66
2022/05/01 07:49:00;;;;;;;15.55;7.70;;;;;;;20.19;37.65;102164.38;5035743;28;20442;-66
2022/05/01 07:51:25;;;;;;;13.00;7.85;;;;;;;20.23;37.77;102165.78;5027592;28;20041;-66
2022/05/01 07:53:51;;;;;;;14.48;8.00;;;;;;;20.28;38.27;102155.28;5037280;28;20025;-66
2022/05/01 07:56:16;;;;;;;11.43;7.45;;;;;;;20.37;37.90;102155.34;5039819;28;20018;-64
2022/05/01 07:58:41;;;;;;;18.02;8.02;;;;;;;20.42;38.03;102142.94;5032075;28;20025;-66
2022/05/01 08:01:07;;;;;;;13.32;8.05;;;;;;;20.56;37.02;102155.13;5034482;28;20495;-66
2022/05/01 08:06:16;;;;;;;11.65;7.80;;;;;;;20.78;37.66;102146.38;5024154;28;20070;-66
2022/05/01 08:08:42;;;;;;;13.52;7.53;;;;;;;20.91;37.27;102144.03;5030870;28;20017;-66
2022/05/01 08:11:08;;;;;;;15.15;8.43;;;;;;;21.02;37.02;102146.47;5032939;28;20422;-66
2022/05/01 08:13:34;;;;;;;12.45;7.90;;;;;;;21.15;37.45;102146.91;5034980;28;20051;-65
2022/05/01 08:16:00;;;;;;;15.75;7.65;;;;;;;21.28;36.81;102147.25;5027518;28;20029;-67
2022/05/01 08:21:09;;;;;;;11.93;6.82;;;;;;;21.51;37.69;102154.81;5033602;28;20031;-66
2022/05/01 08:23:36;;;;;;;15.38;8.25;;;;;;;21.61;36.63;102160.97;5019809;28;20757;-66
2022/05/01 08:26:06;;;;;;;16.20;7.82;;;;;;;21.68;36.78;102168.31;5031295;28;20032;-65
2022/05/01 08:28:35;;;;;;;12.80;6.70;;;;;;;21.78;36.66;102165.41;5035344;28;20060;-66
2022/05/01 08:31:01;;;;;;;12.02;6.50;;;;;;;21.89;36.34;102156.91;5028056;28;20014;-67
2022/05/01 08:33:27;;;;;;;13.52;6.13;;;;;;;22.00;36.85;102157.44;5014412;28;20113;-66
2022/05/01 08:35:53;;;;;;;14.45;6.93;;;;;;;22.16;36.26;102153.84;5032231;28;20422;-66
2022/05/01 08:38:18;;;;;;;17.75;6.57;;;;;;;22.33;35.87;102157.41;5032387;28;20132;-67
2022/05/01 08:40:47;;;;;;;8.63;6.38;;;;;;;22.49;36.09;102150.03;5035038;28;20532;-66
2022/05/01 08:43:17;;;;;;;8.98;6.70;;;;;;;22.70;35.20;102145.91;5030677;28;20013;-65
2022/05/01 08:45:53;;;;;;;13.02;6.97;;;;;;;22.89;35.72;102151.78;5032194;28;20024;-66
2022/05/01 08:48:25;;;;;;;13.13;6.55;;;;;;;23.07;35.31;102143.34;5032249;28;20068;-66
2022/05/01 08:50:52;;;;;;;15.65;6.47;;;;;;;23.25;34.69;102141.22;5013978;28;20025;-65
2022/05/01 08:53:18;;;;;;;12.32;6.28;;;;;;;23.43;35.04;102138.19;5026896;28;20022;-66
2022/05/01 08:55:44;;;;;;;9.13;5.20;;;;;;;23.63;34.85;102140.28;5028439;28;20463;-65
2022/05/01 08:58:10;;;;;;;7.07;5.13;;;;;;;23.73;34.16;102150.97;5031528;28;20037;-66
2022/05/01 09:00:36;;;;;;;7.65;5.22;;;;;;;23.73;34.53;102135.41;5027490;28;20021;-67
2022/05/01 09:03:04;;;;;;;7.55;4.82;;;;;;;23.73;33.56;102140.88;5031272;28;20021;-66
2022/05/01 09:05:30;;;;;;;9.05;5.32;;;;;;;23.78;33.24;102146.66;5031216;28;20036;-65
2022/05/01 09:07:55;;;;;;;8.18;4.85;;;;;;;23.84;33.71;102146.97;5015400;28;20390;-65
2022/05/01 09:10:21;;;;;;;7.13;4.75;;;;;;;23.90;33.68;102140.78;5039213;28;20028;-66
2022/05/01 09:12:49;;;;;;;9.50;4.85;;;;;;;23.96;32.81;102140.88;5021641;28;20035;-67
2022/05/01 09:15:27;;;;;;;9.85;5.75;;;;;;;24.06;32.57;102141.47;5035701;28;20134;-66
2022/05/01 09:18:01;;;;;;;8.00;4.63;;;;;;;24.14;32.29;102143.31;5031028;28;20087;-66
2022/05/01 09:20:26;;;;;;;9.45;4.30;;;;;;;24.23;32.14;102142.22;5031510;28;20020;-66
2022/05/01 09:22:53;;;;;;;5.68;4.03;;;;;;;24.31;31.63;102139.38;5031983;28;20025;-66
2022/05/01 09:25:22;;;;;;;8.25;3.88;;;;;;;24.39;32.06;102136.56;5031502;28;20030;-66
2022/05/01 09:27:49;;;;;;;6.72;3.83;;;;;;;24.49;31.76;102139.00;5031679;28;20513;-66
2022/05/01 09:30:16;;;;;;;9.45;4.40;;;;;;;24.53;31.44;102141.19;5031788;28;20467;-65
2022/05/01 09:32:42;;;;;;;8.38;5.20;;;;;;;24.53;30.69;102149.41;5031336;28;20028;-66
2022/05/01 09:35:29;;;;;;;6.68;4.60;;;;;;;24.54;31.38;102151.09;5031554;28;20108;-67
2022/05/01 09:38:27;;;;;;;10.48;5.32;;;;;;;24.57;31.12;102139.75;5031398;28;20025;-66
2022/05/01 09:40:58;;;;;;;6.75;4.63;;;;;;;24.64;31.17;102148.09;4979126;28;20493;-66
2022/05/01 09:43:45;;;;;;;10.00;4.90;;;;;;;24.75;30.49;102148.47;5031427;28;20022;-66
2022/05/01 09:46:15;;;;;;;12.18;5.20;;;;;;;24.83;30.23;102148.41;5037955;28;20031;-67
2022/05/01 09:48:42;;;;;;;7.15;5.03;;;;;;;24.90;30.53;102134.78;5030819;28;20052;-66
2022/05/01 09:51:18;;;;;;;12.05;5.15;;;;;;;25.03;30.42;102142.31;5029617;28;20451;-67
2022/05/01 09:53:44;;;;;;;10.15;5.15;;;;;;;25.13;29.99;102145.59;5026231;28;20077;-66
2022/05/01 09:56:10;;;;;;;7.15;5.07;;;;;;;25.26;29.98;102145.78;5031010;28;20021;-67
2022/05/01 09:58:40;;;;;;;10.05;5.13;;;;;;;25.36;30.15;102146.31;5031253;28;20091;-66
2022/05/01 10:01:12;;;;;;;8.27;5.03;;;;;;;25.35;29.68;102139.09;5031328;28;20037;-66
2022/05/01 10:03:48;;;;;;;6.65;4.78;;;;;;;25.33;29.13;102132.97;5013592;28;20479;-66
2022/05/01 10:06:15;;;;;;;7.22;5.07;;;;;;;25.37;29.66;102139.78;5031182;28;20033;-66
2022/05/01 10:08:43;;;;;;;7.80;4.65;;;;;;;25.42;29.22;102131.81;5031165;28;20071;-66
2022/05/01 10:11:08;;;;;;;9.95;5.40;;;;;;;25.50;28.88;102142.69;5031150;28;20042;-67
2022/05/01 10:13:35;;;;;;;10.68;5.43;;;;;;;25.57;29.33;102142.78;5033473;28;20065;-66
2022/05/01 10:16:03;;;;;;;7.78;4.47;;;;;;;25.58;29.20;102134.34;5030344;28;20025;-67
2022/05/01 10:18:29;;;;;;;10.63;5.30;;;;;;;25.64;28.54;102143.69;5041926;28;20103;-66
2022/05/01 10:20:55;;;;;;;7.55;4.53;;;;;;;25.65;28.31;102134.41;5044044;28;20021;-66
2022/05/01 10:23:20;;;;;;;9.93;5.32;;;;;;;25.69;28.32;102141.19;5037577;28;20025;-66
2022/05/01 10:25:53;;;;;;;8.43;4.72;;;;;;;25.74;28.12;102131.31;5034562;28;20387;-65
2022/05/01 10:28:18;;;;;;;;;;;;;;;25.85;28.54;102125.28;5034294;28;20425;-66
2022/05/01 10:34:01;;;;;;;10.30;4.85;;;;;;;26.13;27.77;102125.31;5018081;28;21119;-66
2022/05/01 10:36:51;;;;;;;10.32;5.43;;;;;;;26.31;28.06;102119.34;5034472;28;20029;-66
2022/05/01 10:39:18;;;;;;;8.13;5.18;;;;;;;26.31;27.89;102120.22;5039116;28;20049;-66
2022/05/01 10:41:45;;;;;;;8.63;5.10;;;;;;;26.36;27.65;102111.34;5034230;28;20101;-66
2022/05/01 10:44:38;;;;;;;7.47;5.20;;;;;;;26.41;27.80;102108.88;5018566;28;20398;-66
2022/05/01 10:47:05;;;;;;;6.78;4.82;;;;;;;26.46;27.61;102117.38;5030027;28;20083;-66
2022/05/01 10:49:43;;;;;;;7.75;5.15;;;;;;;26.50;27.31;102107.63;5034047;28;20474;-66
2022/05/01 10:52:17;;;;;;;7.10;5.30;;;;;;;26.58;27.35;102115.72;5034142;28;20024;-66
2022/05/01 10:55:03;;;;;;;8.55;4.90;;;;;;;26.68;27.06;102107.97;5032489;28;20382;-66
2022/05/01 10:57:30;;;;;;;6.70;4.35;;;;;;;26.66;27.28;102104.59;5031937;28;20017;-66
2022/05/01 11:00:06;;;;;;;9.63;5.28;;;;;;;26.65;27.49;102100.13;5016277;28;20075;-66
2022/05/01 11:02:51;;;;;;;8.43;5.53;;;;;;;26.65;27.52;102091.88;5032152;28;20017;-67
2022/05/01 11:05:45;;;;;;;9.60;5.70;;;;;;;26.60;27.12;102095.22;5031839;28;20021;-66
2022/05/01 11:08:15;;;;;;;10.30;5.60;;;;;;;26.52;27.04;102084.38;5033645;28;20344;-66
2022/05/01 11:10:40;;;;;;;8.48;5.53;;;;;;;26.55;26.60;102086.75;5033499;28;20379;-66
2022/05/01 11:13:07;;;;;;;9.18;5.20;;;;;;;26.64;26.85;102081.91;5033006;28;20030;-66
2022/05/01 11:15:44;;;;;;;11.10;6.70;;;;;;;26.83;27.02;102083.94;5040131;28;20029;-65
2022/05/01 11:18:09;;;;;;;10.73;5.65;;;;;;;26.87;26.71;102077.00;5032795;28;20430;-66
2022/05/01 11:20:35;;;;;;;9.85;6.03;;;;;;;26.92;27.10;102071.72;5030240;28;20018;-66
2022/05/01 11:23:28;;;;;;;14.55;6.28;;;;;;;26.97;26.41;102077.44;5033384;28;20452;-66
2022/05/01 11:26:05;;;;;;;8.95;5.18;;;;;;;26.97;26.60;102069.19;5032220;28;20040;-66
2022/05/01 11:28:44;;;;;;;9.10;5.60;;;;;;;27.06;25.91;102076.19;5032034;28;20017;-66
2022/05/01 11:31:38;;;;;;;10.95;5.97;;;;;;;27.15;26.19;102063.97;5033109;28;20048;-66
2022/05/01 11:34:24;;;;;;;10.35;5.13;;;;;;;27.17;26.74;102064.59;5031102;28;20033;-66
2022/05/01 11:36:50;;;;;;;13.05;6.38;;;;;;;27.13;26.55;102054.22;5032976;28;20029;-66
2022/05/01 11:39:15;;;;;;;10.20;5.95;;;;;;;27.05;26.54;102052.50;5032366;28;20525;-65
2022/05/01 11:41:46;;;;;;;9.40;5.80;;;;;;;27.00;26.54;102049.50;5032813;28;20041;-66
2022/05/01 11:44:22;;;;;;;9.40;5.57;;;;;;;26.93;26.03;102056.06;5033284;28;20479;-66
2022/05/01 11:46:48;;;;;;;11.15;6.53;;;;;;;26.86;26.05;102052.44;5028968;28;20018;-66
2022/05/01 11:49:13;;;;;;;8.25;6.03;;;;;;;26.80;25.85;102053.28;5036993;28;20027;-66
2022/05/01 11:51:39;;;;;;;9.73;5.93;;;;;;;26.78;26.17;102044.31;5022796;28;20049;-65